Latest Coastal Weather Observations for Browse Island

IDD60701

Issued at 6:15 pm CST Tuesday 21 October 2014 (issued every 10 minutes, with the page automatically refreshed every 10 minutes)

About coastal observations | Map of coastal stations | Coastal observations for NT | Marine services | Other Formats
Station Details ID: 200784 Name: BROWSE ISLAND Lat: -14.11 Lon: 123.55 Height: 3.7 m
Data from the previous 72 hours. | See also: Recent months for locations in Northern Territory
Date/Time
CST
Temp

°C
Wind Pressure Rain
since 9am
mm
Weather Cloud Vis
km
Sea
Height
m
Swell
Dir
 
Speed
knots
Gust
knots
hPa Trend Height
m
Period
s
Dir
21/06:00pm 28.7 W 9 11 1011.8 - - - - - - - - -
21/05:30pm 28.8 W 11 12 1011.6 - - - - - - - - -
21/05:00pm 28.8 W 10 12 1011.6 - - - - - - - - -
21/04:30pm 28.9 W 10 12 1011.8 - - - - - - - - -
21/04:00pm 28.7 W 10 11 1012.0 - - - - - - - - -
21/03:30pm 29.0 W 9 11 1012.2 - - - - - - - - -
21/03:00pm 28.9 W 9 11 1012.6 - - - - - - - - -
21/02:30pm 29.2 W 11 12 1013.2 - - - - - - - - -
21/02:00pm 29.5 W 11 13 1013.5 - - - - - - - - -
21/01:30pm 29.5 W 10 12 1014.0 - - - - - - - - -
21/01:00pm 29.5 W 10 11 1014.6 - - - - - - - - -
21/12:30pm 29.2 W 13 15 1014.5 - - - - - - - - -
21/12:00pm 28.9 W 13 14 1014.6 - - - - - - - - -
21/11:30am 28.9 W 10 12 1015.1 - - - - - - - - -
21/11:00am 28.6 WNW 10 11 1015.3 - - - - - - - - -
21/10:30am 28.8 W 9 10 1015.5 - - - - - - - - -
21/10:00am 28.8 W 10 11 1015.2 - - - - - - - - -
21/09:30am 28.5 W 9 10 1015.3 - - - - - - - - -
21/09:00am 28.4 W 8 9 1015.2 - - - - - - - - -
21/08:30am 28.4 W 8 9 1014.9 - - - - - - - - -
21/08:00am 28.1 WSW 8 10 1014.4 - - - - - - - - -
21/07:30am 28.0 SW 9 10 1014.2 - - - - - - - - -
21/07:00am 27.9 SW 8 9 1014.0 - - - - - - - - -
21/06:30am 27.7 WSW 7 8 1013.5 - - - - - - - - -
21/06:00am 27.7 WSW 7 8 1013.3 - - - - - - - - -
21/05:30am 27.6 SW 6 7 1013.1 - - - - - - - - -
21/05:00am 27.7 SW 7 9 1012.9 - - - - - - - - -
21/04:30am 27.8 SW 9 11 1012.6 - - - - - - - - -
21/04:00am 27.8 SW 10 11 1012.5 - - - - - - - - -
21/03:30am 28.1 SW 12 14 1012.1 - - - - - - - - -
21/03:00am 28.2 SW 12 13 1011.9 - - - - - - - - -
21/02:30am 28.2 WSW 11 12 1012.2 - - - - - - - - -
21/02:00am 28.2 WSW 10 11 1012.6 - - - - - - - - -
21/01:30am 28.3 WSW 10 11 1012.9 - - - - - - - - -
21/01:00am 28.2 W 9 11 1013.2 - - - - - - - - -
21/12:30am 28.2 W 9 9 1013.7 - - - - - - - - -
21/12:00am 28.3 W 9 10 1013.8 - - - - - - - - -
 
Date/Time
CST
Temp

°C
Wind Pressure Rain
since 9am
mm
Weather Cloud Vis
km
Sea
Height
m
Swell
Dir
 
Speed
knots
Gust
knots
hPa Trend Height
m
Period
s
Dir
20/11:30pm 28.1 W 9 9 1014.0 - - - - - - - - -
20/11:00pm 28.1 W 9 10 1014.0 - - - - - - - - -
20/10:30pm 28.1 W 9 11 1013.9 - - - - - - - - -
20/10:00pm 28.1 W 10 11 1013.9 - - - - - - - - -
20/09:30pm 28.0 W 10 11 1013.6 - - - - - - - - -
20/09:00pm 27.9 W 10 11 1013.4 - - - - - - - - -
20/08:30pm 28.0 W 10 11 1013.0 - - - - - - - - -
20/08:00pm 28.0 W 10 11 1012.4 - - - - - - - - -
20/07:30pm 27.9 W 9 11 1012.2 - - - - - - - - -
20/07:00pm 27.9 W 8 10 1012.0 - - - - - - - - -
20/06:30pm 28.2 WSW 6 7 1012.0 - - - - - - - - -
20/06:00pm 28.3 WSW 7 8 1011.9 - - - - - - - - -
20/05:30pm 28.4 WSW 6 8 1011.8 - - - - - - - - -
20/05:00pm 28.4 SSW 5 6 1012.1 - - - - - - - - -
20/04:30pm 29.2 S 5 7 1012.3 - - - - - - - - -
20/04:00pm 28.5 SSW 6 8 1012.3 - - - - - - - - -
20/03:30pm 29.3 S 4 6 1012.6 - - - - - - - - -
20/03:00pm 28.9 S 5 7 1012.8 - - - - - - - - -
20/02:30pm 29.3 SSE 5 7 1013.3 - - - - - - - - -
20/02:00pm 29.1 S 7 8 1013.4 - - - - - - - - -
20/01:30pm 27.9 S 10 11 1013.4 - - - - - - - - -
20/01:00pm 27.9 S 9 11 1013.8 - - - - - - - - -
20/12:30pm 28.1 S 9 10 1014.3 - - - - - - - - -
20/12:00pm 27.6 S 9 11 1014.8 - - - - - - - - -
20/11:30am 27.9 S 7 9 1015.0 - - - - - - - - -
20/11:00am 28.3 S 7 8 1015.3 - - - - - - - - -
20/10:30am 27.8 S 8 9 1015.4 - - - - - - - - -
20/10:00am 27.7 S 7 9 1015.5 - - - - - - - - -
20/09:30am 27.7 S 7 8 1015.3 - - - - - - - - -
20/09:00am 27.5 S 9 10 1015.0 - - - - - - - - -
20/08:30am 27.4 SSW 8 10 1014.6 - - - - - - - - -
20/08:00am 27.2 SSW 7 9 1014.2 - - - - - - - - -
20/07:30am 27.1 SSW 9 10 1013.9 - - - - - - - - -
20/07:00am 27.2 SSW 9 11 1013.6 - - - - - - - - -
20/06:30am 27.1 SSW 10 12 1013.3 - - - - - - - - -
20/06:00am 27.2 SSW 10 11 1013.0 - - - - - - - - -
20/05:30am 27.3 SW 10 12 1012.5 - - - - - - - - -
20/05:00am 27.2 SW 7 8 1012.4 - - - - - - - - -
20/04:30am 27.3 SW 5 6 1012.1 - - - - - - - - -
20/04:00am 27.2 WSW 5 6 1012.1 - - - - - - - - -
20/03:30am 27.2 W 4 5 1012.0 - - - - - - - - -
20/03:00am 27.2 W 5 6 1012.1 - - - - - - - - -
20/02:30am 27.2 WNW 4 5 1012.3 - - - - - - - - -
20/02:00am 27.3 WNW 5 6 1012.5 - - - - - - - - -
20/01:30am 27.4 NW 5 6 1012.9 - - - - - - - - -
20/01:00am 27.4 WNW 5 6 1013.2 - - - - - - - - -
20/12:30am 27.5 WNW 5 7 1013.5 - - - - - - - - -
20/12:00am 27.3 W 5 6 1013.6 - - - - - - - - -
 
Date/Time
CST
Temp

°C
Wind Pressure Rain
since 9am
mm
Weather Cloud Vis
km
Sea
Height
m
Swell
Dir
 
Speed
knots
Gust
knots
hPa Trend Height
m
Period
s
Dir
19/11:30pm 27.6 W 6 7 1013.9 - - - - - - - - -
19/11:00pm 27.4 W 6 6 1013.9 - - - - - - - - -
19/10:30pm 27.7 W 6 7 1013.8 - - - - - - - - -
19/10:00pm 27.7 WNW 7 8 1013.4 - - - - - - - - -
19/09:30pm 27.6 WNW 7 9 1013.2 - - - - - - - - -
19/09:00pm 27.6 NW 8 9 1012.8 - - - - - - - - -
19/08:30pm 27.6 NW 6 7 1012.8 - - - - - - - - -
19/08:00pm 27.7 NNW 6 7 1012.5 - - - - - - - - -
19/07:30pm 27.7 N 5 5 1012.4 - - - - - - - - -
19/07:00pm 27.9 NNE 3 4 1012.3 - - - - - - - - -
19/06:30pm 28.3 NE 4 5 1012.0 - - - - - - - - -
19/06:00pm 28.9 SE 3 4 1011.6 - - - - - - - - -
19/05:30pm 28.4 SSE 5 6 1011.6 - - - - - - - - -
19/05:00pm 28.6 SSE 6 7 1011.4 - - - - - - - - -
19/04:30pm 28.8 SSE 7 9 1011.5 - - - - - - - - -
19/04:00pm 29.3 SSE 8 9 1011.6 - - - - - - - - -
19/03:30pm 28.5 SSE 8 11 1011.6 - - - - - - - - -
19/03:00pm 28.2 S 10 11 1011.6 - - - - - - - - -
19/02:30pm 28.5 S 9 11 1011.9 - - - - - - - - -
19/02:00pm 28.4 S 9 11 1012.1 - - - - - - - - -
19/01:30pm 28.4 S 8 10 1012.5 - - - - - - - - -
19/01:00pm 29.0 S 7 9 1012.9 - - - - - - - - -
19/12:30pm 28.5 S 9 10 1013.2 - - - - - - - - -
19/12:00pm 28.5 S 8 10 1013.5 - - - - - - - - -
19/11:30am 27.9 S 9 11 1013.8 - - - - - - - - -
19/11:00am 27.8 S 10 11 1014.0 - - - - - - - - -
19/10:30am 27.4 S 11 13 1014.0 - - - - - - - - -
19/10:00am 27.7 S 10 12 1014.0 - - - - - - - - -
19/09:30am 27.5 S 10 11 1014.0 - - - - - - - - -
19/09:00am 27.2 S 8 9 1013.7 - - - - - - - - -
19/08:30am 27.3 S 8 9 1013.2 - - - - - - - - -
19/08:00am 27.1 SSW 8 9 1012.9 - - - - - - - - -
19/07:30am 27.2 SSW 6 7 1012.6 - - - - - - - - -
19/07:00am 27.1 SW 6 8 1012.2 - - - - - - - - -
19/06:30am 27.0 SW 6 6 1011.9 - - - - - - - - -
19/06:00am 26.9 SSW 5 6 1011.8 - - - - - - - - -
19/05:30am 26.8 SSW 5 7 1011.7 - - - - - - - - -
19/05:00am 26.8 SSW 6 7 1011.6 - - - - - - - - -
19/04:30am 26.9 SSW 6 7 1011.4 - - - - - - - - -
19/04:00am 26.9 SSW 5 7 1011.4 - - - - - - - - -
19/03:30am 26.9 SW 5 6 1011.4 - - - - - - - - -
19/03:00am 27.0 CALM 0 0 1011.7 - - - - - - - - -
19/02:30am 26.7 CALM 0 0 1011.8 - - - - - - - - -
19/02:00am 26.8 CALM 0 0 1012.1 - - - - - - - - -
19/01:30am 27.1 NW 3 4 1012.3 - - - - - - - - -
19/01:00am 27.2 NNW 3 4 1012.6 - - - - - - - - -
19/12:30am 27.3 NNW 4 5 1012.8 - - - - - - - - -
19/12:00am 27.4 N 4 5 1013.0 - - - - - - - - -
 
Date/Time
CST
Temp

°C
Wind Pressure Rain
since 9am
mm
Weather Cloud Vis
km
Sea
Height
m
Swell
Dir
 
Speed
knots
Gust
knots
hPa Trend Height
m
Period
s
Dir
18/11:30pm 27.5 N 4 5 1013.1 - - - - - - - - -
18/11:00pm 27.5 NW 3 4 1013.1 - - - - - - - - -
18/10:30pm 27.6 NW 4 5 1012.8 - - - - - - - - -
18/10:00pm 27.7 W 7 8 1012.3 - - - - - - - - -
18/09:30pm 27.7 W 7 8 1012.0 - - - - - - - - -
18/09:00pm 27.9 W 8 9 1011.6 - - - - - - - - -
18/08:30pm 27.8 W 5 6 1011.5 - - - - - - - - -
18/08:00pm 27.9 WSW 5 6 1011.4 - - - - - - - - -

Other Formats:

Comma delimited format used in spreadsheet applications
http://www.bom.gov.au/fwo/IDD60701/IDD60701.94103.axf

JavaScript Object Notation format (JSON) in row-major order
http://www.bom.gov.au/fwo/IDD60701/IDD60701.94103.json